Jamshedpur, India
Current Conditions -  °F | °C
As of 12:50 PM on Tuesday 27 Jan 2015 (Local Time) from VECC Reporting Station
Haze Haze  
Wind Chill: 79°   Ceiling: Unl
Heat Index: 79°   Visibility: 2.1mi
Dew Point: 55°   Wind: 9mph
Humidity: 44%   Direction: 340°NNW
Pressure: 29.94"   Gusts: NA
Location:  22.78°N, 86.21°E
Report Text: VECC 270750Z 34008KT 3500 HZ NSC 26/13 Q1014 NOSIG
Loading
Personal Weather Stations






























Interactive Weather Map New forecast layout! Learn more

10-Day Weather Forecast

Advertisements
Track Severe Weather on mobile